sensor_id;sensor_type;location;lat;lon;timestamp;P1;durP1;ratioP1;P2;durP2;ratioP2
32523;SDS011;18965;52.242;20.886;2023-07-02T00:00:27;24.60;;;15.23;;
32523;SDS011;18965;52.242;20.886;2023-07-02T00:02:53;24.48;;;14.98;;
32523;SDS011;18965;52.242;20.886;2023-07-02T00:05:19;19.63;;;13.27;;
32523;SDS011;18965;52.242;20.886;2023-07-02T00:07:45;23.23;;;16.02;;
32523;SDS011;18965;52.242;20.886;2023-07-02T00:10:10;22.95;;;15.18;;
32523;SDS011;18965;52.242;20.886;2023-07-02T00:12:36;24.38;;;16.13;;
32523;SDS011;18965;52.242;20.886;2023-07-02T00:15:02;22.92;;;15.13;;
32523;SDS011;18965;52.242;20.886;2023-07-02T00:17:28;23.67;;;15.20;;
32523;SDS011;18965;52.242;20.886;2023-07-02T00:19:54;21.23;;;14.50;;
32523;SDS011;18965;52.242;20.886;2023-07-02T00:22:20;21.10;;;14.50;;
32523;SDS011;18965;52.242;20.886;2023-07-02T00:24:46;24.63;;;16.38;;
32523;SDS011;18965;52.242;20.886;2023-07-02T00:27:12;22.98;;;16.55;;
32523;SDS011;18965;52.242;20.886;2023-07-02T00:29:38;26.58;;;16.50;;
32523;SDS011;18965;52.242;20.886;2023-07-02T00:32:04;24.95;;;15.82;;
32523;SDS011;18965;52.242;20.886;2023-07-02T00:34:30;23.77;;;15.43;;
32523;SDS011;18965;52.242;20.886;2023-07-02T00:36:55;24.55;;;15.70;;
32523;SDS011;18965;52.242;20.886;2023-07-02T00:39:21;23.45;;;15.77;;
32523;SDS011;18965;52.242;20.886;2023-07-02T00:41:47;23.80;;;15.00;;
32523;SDS011;18965;52.242;20.886;2023-07-02T00:44:13;20.65;;;14.50;;
32523;SDS011;18965;52.242;20.886;2023-07-02T00:46:39;21.25;;;15.13;;
32523;SDS011;18965;52.242;20.886;2023-07-02T00:49:05;22.75;;;14.55;;
32523;SDS011;18965;52.242;20.886;2023-07-02T00:51:32;22.52;;;15.48;;
32523;SDS011;18965;52.242;20.886;2023-07-02T00:53:58;23.30;;;14.95;;
32523;SDS011;18965;52.242;20.886;2023-07-02T00:56:25;24.02;;;15.20;;
32523;SDS011;18965;52.242;20.886;2023-07-02T00:58:53;24.27;;;16.02;;
32523;SDS011;18965;52.242;20.886;2023-07-02T01:01:20;23.60;;;14.88;;
32523;SDS011;18965;52.242;20.886;2023-07-02T01:03:59;23.17;;;14.48;;
32523;SDS011;18965;52.242;20.886;2023-07-02T01:08:57;23.00;;;15.77;;
32523;SDS011;18965;52.242;20.886;2023-07-02T01:11:34;21.35;;;14.38;;
32523;SDS011;18965;52.242;20.886;2023-07-02T01:14:12;21.13;;;14.35;;
32523;SDS011;18965;52.242;20.886;2023-07-02T01:16:43;24.73;;;14.70;;
32523;SDS011;18965;52.242;20.886;2023-07-02T01:19:13;23.45;;;14.90;;
32523;SDS011;18965;52.242;20.886;2023-07-02T01:21:44;20.92;;;14.10;;
32523;SDS011;18965;52.242;20.886;2023-07-02T01:24:11;22.15;;;14.40;;
32523;SDS011;18965;52.242;20.886;2023-07-02T01:26:39;25.38;;;16.00;;
32523;SDS011;18965;52.242;20.886;2023-07-02T01:29:17;25.38;;;15.50;;
32523;SDS011;18965;52.242;20.886;2023-07-02T01:31:45;22.33;;;15.63;;
32523;SDS011;18965;52.242;20.886;2023-07-02T01:34:12;23.27;;;15.45;;
32523;SDS011;18965;52.242;20.886;2023-07-02T01:36:38;23.40;;;15.15;;
32523;SDS011;18965;52.242;20.886;2023-07-02T01:39:04;23.75;;;15.32;;
32523;SDS011;18965;52.242;20.886;2023-07-02T01:41:36;20.60;;;13.70;;
32523;SDS011;18965;52.242;20.886;2023-07-02T01:44:07;22.85;;;15.32;;
32523;SDS011;18965;52.242;20.886;2023-07-02T01:46:33;25.02;;;16.17;;
32523;SDS011;18965;52.242;20.886;2023-07-02T01:48:58;23.30;;;15.98;;
32523;SDS011;18965;52.242;20.886;2023-07-02T01:51:24;24.17;;;16.13;;
32523;SDS011;18965;52.242;20.886;2023-07-02T01:53:50;23.23;;;15.32;;
32523;SDS011;18965;52.242;20.886;2023-07-02T01:56:15;25.90;;;15.77;;
32523;SDS011;18965;52.242;20.886;2023-07-02T01:58:41;27.08;;;15.88;;
32523;SDS011;18965;52.242;20.886;2023-07-02T02:01:07;23.40;;;15.82;;
32523;SDS011;18965;52.242;20.886;2023-07-02T02:03:32;24.15;;;16.45;;
32523;SDS011;18965;52.242;20.886;2023-07-02T02:05:58;23.33;;;14.80;;
32523;SDS011;18965;52.242;20.886;2023-07-02T02:08:24;22.50;;;15.77;;
32523;SDS011;18965;52.242;20.886;2023-07-02T02:10:49;22.55;;;14.82;;
32523;SDS011;18965;52.242;20.886;2023-07-02T02:13:15;25.63;;;15.98;;
32523;SDS011;18965;52.242;20.886;2023-07-02T02:15:41;23.27;;;15.10;;
32523;SDS011;18965;52.242;20.886;2023-07-02T02:18:06;22.17;;;14.85;;
32523;SDS011;18965;52.242;20.886;2023-07-02T02:20:32;23.05;;;14.77;;
32523;SDS011;18965;52.242;20.886;2023-07-02T02:22:58;20.85;;;14.23;;
32523;SDS011;18965;52.242;20.886;2023-07-02T02:25:24;21.75;;;14.55;;
32523;SDS011;18965;52.242;20.886;2023-07-02T02:27:50;21.85;;;14.75;;
32523;SDS011;18965;52.242;20.886;2023-07-02T02:30:15;21.90;;;14.93;;
32523;SDS011;18965;52.242;20.886;2023-07-02T02:32:41;19.05;;;12.90;;
32523;SDS011;18965;52.242;20.886;2023-07-02T02:35:07;21.10;;;13.98;;
32523;SDS011;18965;52.242;20.886;2023-07-02T02:37:33;20.67;;;13.73;;
32523;SDS011;18965;52.242;20.886;2023-07-02T02:40:01;22.73;;;13.70;;
32523;SDS011;18965;52.242;20.886;2023-07-02T02:42:27;19.90;;;13.55;;
32523;SDS011;18965;52.242;20.886;2023-07-02T02:44:52;18.83;;;12.23;;
32523;SDS011;18965;52.242;20.886;2023-07-02T02:47:18;20.30;;;13.43;;
32523;SDS011;18965;52.242;20.886;2023-07-02T02:49:44;22.50;;;13.05;;
32523;SDS011;18965;52.242;20.886;2023-07-02T02:52:10;18.63;;;12.70;;
32523;SDS011;18965;52.242;20.886;2023-07-02T02:54:35;17.30;;;11.63;;
32523;SDS011;18965;52.242;20.886;2023-07-02T02:57:01;20.83;;;13.32;;
32523;SDS011;18965;52.242;20.886;2023-07-02T02:59:27;21.55;;;12.52;;
32523;SDS011;18965;52.242;20.886;2023-07-02T03:01:53;20.90;;;13.82;;
32523;SDS011;18965;52.242;20.886;2023-07-02T03:04:19;19.13;;;12.50;;
32523;SDS011;18965;52.242;20.886;2023-07-02T03:06:48;18.92;;;11.60;;
32523;SDS011;18965;52.242;20.886;2023-07-02T03:09:14;21.23;;;12.98;;
32523;SDS011;18965;52.242;20.886;2023-07-02T03:11:40;17.23;;;12.05;;
32523;SDS011;18965;52.242;20.886;2023-07-02T03:14:06;17.73;;;11.95;;
32523;SDS011;18965;52.242;20.886;2023-07-02T03:16:31;18.85;;;13.57;;
32523;SDS011;18965;52.242;20.886;2023-07-02T03:18:58;18.60;;;13.38;;
32523;SDS011;18965;52.242;20.886;2023-07-02T03:21:24;18.40;;;13.35;;
32523;SDS011;18965;52.242;20.886;2023-07-02T03:23:50;19.35;;;12.48;;
32523;SDS011;18965;52.242;20.886;2023-07-02T03:26:15;22.05;;;13.13;;
32523;SDS011;18965;52.242;20.886;2023-07-02T03:28:41;19.17;;;12.20;;
32523;SDS011;18965;52.242;20.886;2023-07-02T03:31:07;15.13;;;11.55;;
32523;SDS011;18965;52.242;20.886;2023-07-02T03:33:32;20.35;;;12.63;;
32523;SDS011;18965;52.242;20.886;2023-07-02T03:35:58;18.67;;;12.30;;
32523;SDS011;18965;52.242;20.886;2023-07-02T03:38:24;14.77;;;10.35;;
32523;SDS011;18965;52.242;20.886;2023-07-02T03:40:50;16.27;;;11.27;;
32523;SDS011;18965;52.242;20.886;2023-07-02T03:43:15;17.73;;;11.32;;
32523;SDS011;18965;52.242;20.886;2023-07-02T03:45:41;16.45;;;10.95;;
32523;SDS011;18965;52.242;20.886;2023-07-02T03:48:07;16.55;;;11.23;;
32523;SDS011;18965;52.242;20.886;2023-07-02T03:50:32;16.15;;;10.93;;
32523;SDS011;18965;52.242;20.886;2023-07-02T03:52:58;15.45;;;11.20;;
32523;SDS011;18965;52.242;20.886;2023-07-02T03:55:24;14.95;;;10.27;;
32523;SDS011;18965;52.242;20.886;2023-07-02T03:57:50;17.58;;;11.23;;
32523;SDS011;18965;52.242;20.886;2023-07-02T04:00:16;18.98;;;10.95;;
32523;SDS011;18965;52.242;20.886;2023-07-02T04:02:41;15.60;;;11.40;;
32523;SDS011;18965;52.242;20.886;2023-07-02T04:05:07;15.05;;;10.25;;
32523;SDS011;18965;52.242;20.886;2023-07-02T04:07:33;16.98;;;10.90;;
32523;SDS011;18965;52.242;20.886;2023-07-02T04:09:59;17.25;;;11.20;;
32523;SDS011;18965;52.242;20.886;2023-07-02T04:12:25;13.68;;;10.10;;
32523;SDS011;18965;52.242;20.886;2023-07-02T04:14:51;12.27;;;9.38;;
32523;SDS011;18965;52.242;20.886;2023-07-02T04:17:17;14.35;;;10.38;;
32523;SDS011;18965;52.242;20.886;2023-07-02T04:19:43;12.68;;;9.55;;
32523;SDS011;18965;52.242;20.886;2023-07-02T04:22:08;14.48;;;10.40;;
32523;SDS011;18965;52.242;20.886;2023-07-02T04:24:34;12.60;;;9.68;;
32523;SDS011;18965;52.242;20.886;2023-07-02T04:27:00;12.75;;;9.70;;
32523;SDS011;18965;52.242;20.886;2023-07-02T04:29:25;12.40;;;9.10;;
32523;SDS011;18965;52.242;20.886;2023-07-02T04:31:51;15.02;;;10.05;;
32523;SDS011;18965;52.242;20.886;2023-07-02T04:34:16;13.35;;;9.20;;
32523;SDS011;18965;52.242;20.886;2023-07-02T04:36:43;12.43;;;9.48;;
32523;SDS011;18965;52.242;20.886;2023-07-02T04:39:08;12.63;;;8.98;;
32523;SDS011;18965;52.242;20.886;2023-07-02T04:41:35;12.07;;;8.77;;
32523;SDS011;18965;52.242;20.886;2023-07-02T04:44:01;12.95;;;9.20;;
32523;SDS011;18965;52.242;20.886;2023-07-02T04:46:27;12.25;;;7.97;;
32523;SDS011;18965;52.242;20.886;2023-07-02T04:48:53;14.77;;;9.70;;
32523;SDS011;18965;52.242;20.886;2023-07-02T04:51:19;12.80;;;9.13;;
32523;SDS011;18965;52.242;20.886;2023-07-02T04:53:46;11.65;;;8.70;;
32523;SDS011;18965;52.242;20.886;2023-07-02T04:56:11;11.93;;;8.52;;
32523;SDS011;18965;52.242;20.886;2023-07-02T04:58:37;13.13;;;9.05;;
32523;SDS011;18965;52.242;20.886;2023-07-02T05:01:03;15.63;;;8.55;;
32523;SDS011;18965;52.242;20.886;2023-07-02T05:03:29;11.63;;;8.40;;
32523;SDS011;18965;52.242;20.886;2023-07-02T05:05:55;11.18;;;7.78;;
32523;SDS011;18965;52.242;20.886;2023-07-02T05:08:21;12.77;;;9.00;;
32523;SDS011;18965;52.242;20.886;2023-07-02T05:10:47;14.70;;;8.63;;
32523;SDS011;18965;52.242;20.886;2023-07-02T05:13:12;12.80;;;8.35;;
32523;SDS011;18965;52.242;20.886;2023-07-02T05:15:39;12.18;;;8.05;;
32523;SDS011;18965;52.242;20.886;2023-07-02T05:18:05;15.05;;;7.97;;
32523;SDS011;18965;52.242;20.886;2023-07-02T05:20:31;11.52;;;7.82;;
32523;SDS011;18965;52.242;20.886;2023-07-02T05:22:57;11.70;;;8.10;;
32523;SDS011;18965;52.242;20.886;2023-07-02T05:25:23;9.80;;;7.78;;
32523;SDS011;18965;52.242;20.886;2023-07-02T05:27:49;13.07;;;8.38;;
32523;SDS011;18965;52.242;20.886;2023-07-02T05:30:14;10.38;;;7.47;;
32523;SDS011;18965;52.242;20.886;2023-07-02T05:32:42;10.50;;;7.55;;
32523;SDS011;18965;52.242;20.886;2023-07-02T05:35:07;12.00;;;7.35;;
32523;SDS011;18965;52.242;20.886;2023-07-02T05:37:33;9.55;;;7.05;;
32523;SDS011;18965;52.242;20.886;2023-07-02T05:39:59;13.70;;;7.13;;
32523;SDS011;18965;52.242;20.886;2023-07-02T05:42:25;13.27;;;7.93;;
32523;SDS011;18965;52.242;20.886;2023-07-02T05:44:50;12.10;;;8.27;;
32523;SDS011;18965;52.242;20.886;2023-07-02T05:47:16;10.88;;;7.28;;
32523;SDS011;18965;52.242;20.886;2023-07-02T05:49:42;11.00;;;6.80;;
32523;SDS011;18965;52.242;20.886;2023-07-02T05:52:08;10.60;;;7.65;;
32523;SDS011;18965;52.242;20.886;2023-07-02T05:54:33;11.88;;;7.40;;
32523;SDS011;18965;52.242;20.886;2023-07-02T05:56:59;12.20;;;7.43;;
32523;SDS011;18965;52.242;20.886;2023-07-02T05:59:25;9.38;;;7.13;;
32523;SDS011;18965;52.242;20.886;2023-07-02T06:01:50;11.95;;;7.20;;
32523;SDS011;18965;52.242;20.886;2023-07-02T06:04:16;11.10;;;7.15;;
32523;SDS011;18965;52.242;20.886;2023-07-02T06:06:42;9.27;;;6.47;;
32523;SDS011;18965;52.242;20.886;2023-07-02T06:09:07;11.70;;;7.45;;
32523;SDS011;18965;52.242;20.886;2023-07-02T06:11:33;11.15;;;7.80;;
32523;SDS011;18965;52.242;20.886;2023-07-02T06:13:59;9.43;;;7.03;;
32523;SDS011;18965;52.242;20.886;2023-07-02T06:16:25;10.30;;;7.32;;
32523;SDS011;18965;52.242;20.886;2023-07-02T06:18:51;10.13;;;7.05;;
32523;SDS011;18965;52.242;20.886;2023-07-02T06:21:16;10.10;;;7.18;;
32523;SDS011;18965;52.242;20.886;2023-07-02T06:23:42;12.60;;;7.35;;
32523;SDS011;18965;52.242;20.886;2023-07-02T06:26:09;10.80;;;7.07;;
32523;SDS011;18965;52.242;20.886;2023-07-02T06:28:35;12.80;;;7.35;;
32523;SDS011;18965;52.242;20.886;2023-07-02T06:31:01;10.52;;;7.28;;
32523;SDS011;18965;52.242;20.886;2023-07-02T06:33:27;11.60;;;7.80;;
32523;SDS011;18965;52.242;20.886;2023-07-02T06:35:52;11.43;;;7.55;;
32523;SDS011;18965;52.242;20.886;2023-07-02T06:38:18;12.57;;;7.55;;
32523;SDS011;18965;52.242;20.886;2023-07-02T06:40:44;9.75;;;7.07;;
32523;SDS011;18965;52.242;20.886;2023-07-02T06:43:09;9.30;;;6.82;;
32523;SDS011;18965;52.242;20.886;2023-07-02T06:45:35;11.52;;;7.32;;
32523;SDS011;18965;52.242;20.886;2023-07-02T06:48:01;12.25;;;7.13;;
32523;SDS011;18965;52.242;20.886;2023-07-02T06:50:26;12.85;;;6.80;;
32523;SDS011;18965;52.242;20.886;2023-07-02T06:52:56;10.90;;;6.38;;
32523;SDS011;18965;52.242;20.886;2023-07-02T06:55:23;10.10;;;6.90;;
32523;SDS011;18965;52.242;20.886;2023-07-02T06:57:49;9.82;;;6.20;;
32523;SDS011;18965;52.242;20.886;2023-07-02T07:00:14;9.45;;;6.05;;
32523;SDS011;18965;52.242;20.886;2023-07-02T07:02:40;8.23;;;5.90;;
32523;SDS011;18965;52.242;20.886;2023-07-02T07:05:06;9.50;;;6.07;;
32523;SDS011;18965;52.242;20.886;2023-07-02T07:07:32;7.15;;;5.63;;
32523;SDS011;18965;52.242;20.886;2023-07-02T07:09:58;6.75;;;5.30;;
32523;SDS011;18965;52.242;20.886;2023-07-02T07:12:23;9.90;;;5.28;;
32523;SDS011;18965;52.242;20.886;2023-07-02T07:14:49;9.70;;;5.63;;
32523;SDS011;18965;52.242;20.886;2023-07-02T07:17:15;10.10;;;5.60;;
32523;SDS011;18965;52.242;20.886;2023-07-02T07:19:40;9.10;;;5.63;;
32523;SDS011;18965;52.242;20.886;2023-07-02T07:22:06;7.93;;;5.63;;
32523;SDS011;18965;52.242;20.886;2023-07-02T07:24:32;7.50;;;5.43;;
32523;SDS011;18965;52.242;20.886;2023-07-02T07:26:57;7.65;;;4.90;;
32523;SDS011;18965;52.242;20.886;2023-07-02T07:29:23;9.10;;;5.15;;
32523;SDS011;18965;52.242;20.886;2023-07-02T07:31:49;7.97;;;4.97;;
32523;SDS011;18965;52.242;20.886;2023-07-02T07:34:15;6.93;;;5.05;;
32523;SDS011;18965;52.242;20.886;2023-07-02T07:36:41;9.57;;;5.00;;
32523;SDS011;18965;52.242;20.886;2023-07-02T07:39:06;7.03;;;5.07;;
32523;SDS011;18965;52.242;20.886;2023-07-02T07:41:32;7.82;;;4.22;;
32523;SDS011;18965;52.242;20.886;2023-07-02T07:43:59;9.85;;;4.65;;
32523;SDS011;18965;52.242;20.886;2023-07-02T07:46:26;6.57;;;4.15;;
32523;SDS011;18965;52.242;20.886;2023-07-02T07:48:52;7.18;;;4.28;;
32523;SDS011;18965;52.242;20.886;2023-07-02T07:51:17;9.77;;;4.40;;
32523;SDS011;18965;52.242;20.886;2023-07-02T07:53:43;8.45;;;4.32;;
32523;SDS011;18965;52.242;20.886;2023-07-02T07:56:09;6.72;;;4.32;;
32523;SDS011;18965;52.242;20.886;2023-07-02T07:58:35;7.18;;;4.55;;
32523;SDS011;18965;52.242;20.886;2023-07-02T08:01:01;6.05;;;4.38;;
32523;SDS011;18965;52.242;20.886;2023-07-02T08:03:26;5.07;;;3.70;;
32523;SDS011;18965;52.242;20.886;2023-07-02T08:05:52;6.65;;;4.50;;
32523;SDS011;18965;52.242;20.886;2023-07-02T08:08:19;6.15;;;4.18;;
32523;SDS011;18965;52.242;20.886;2023-07-02T08:10:44;6.85;;;4.35;;
32523;SDS011;18965;52.242;20.886;2023-07-02T08:13:11;5.28;;;4.03;;
32523;SDS011;18965;52.242;20.886;2023-07-02T08:15:37;5.68;;;4.30;;
32523;SDS011;18965;52.242;20.886;2023-07-02T08:18:03;6.47;;;4.00;;
32523;SDS011;18965;52.242;20.886;2023-07-02T08:20:29;4.65;;;3.80;;
32523;SDS011;18965;52.242;20.886;2023-07-02T08:22:55;6.70;;;4.30;;
32523;SDS011;18965;52.242;20.886;2023-07-02T08:25:20;6.05;;;3.85;;
32523;SDS011;18965;52.242;20.886;2023-07-02T08:27:47;6.22;;;3.92;;
32523;SDS011;18965;52.242;20.886;2023-07-02T08:30:12;5.85;;;4.13;;
32523;SDS011;18965;52.242;20.886;2023-07-02T08:32:38;5.53;;;3.70;;
32523;SDS011;18965;52.242;20.886;2023-07-02T08:35:04;4.68;;;3.97;;
32523;SDS011;18965;52.242;20.886;2023-07-02T08:37:29;5.85;;;4.15;;
32523;SDS011;18965;52.242;20.886;2023-07-02T08:39:55;4.93;;;3.60;;
32523;SDS011;18965;52.242;20.886;2023-07-02T08:42:21;6.13;;;3.97;;
32523;SDS011;18965;52.242;20.886;2023-07-02T08:44:47;4.40;;;3.38;;
32523;SDS011;18965;52.242;20.886;2023-07-02T08:47:13;3.92;;;3.30;;
32523;SDS011;18965;52.242;20.886;2023-07-02T08:49:41;5.63;;;3.38;;
32523;SDS011;18965;52.242;20.886;2023-07-02T08:52:07;4.78;;;3.33;;
32523;SDS011;18965;52.242;20.886;2023-07-02T08:54:33;3.90;;;3.33;;
32523;SDS011;18965;52.242;20.886;2023-07-02T08:56:58;3.75;;;3.13;;
32523;SDS011;18965;52.242;20.886;2023-07-02T08:59:26;3.97;;;3.50;;
32523;SDS011;18965;52.242;20.886;2023-07-02T09:01:52;4.13;;;3.08;;
32523;SDS011;18965;52.242;20.886;2023-07-02T09:04:25;4.70;;;3.70;;
32523;SDS011;18965;52.242;20.886;2023-07-02T09:07:02;5.07;;;3.47;;
32523;SDS011;18965;52.242;20.886;2023-07-02T09:09:32;3.47;;;3.13;;
32523;SDS011;18965;52.242;20.886;2023-07-02T09:12:08;4.47;;;3.80;;
32523;SDS011;18965;52.242;20.886;2023-07-02T09:14:34;4.80;;;3.55;;
32523;SDS011;18965;52.242;20.886;2023-07-02T09:17:03;3.45;;;3.15;;
32523;SDS011;18965;52.242;20.886;2023-07-02T09:19:31;3.90;;;3.50;;
32523;SDS011;18965;52.242;20.886;2023-07-02T09:21:57;4.05;;;2.90;;
32523;SDS011;18965;52.242;20.886;2023-07-02T09:24:27;4.28;;;3.22;;
32523;SDS011;18965;52.242;20.886;2023-07-02T09:26:55;3.28;;;2.78;;
32523;SDS011;18965;52.242;20.886;2023-07-02T09:29:23;3.97;;;3.10;;
32523;SDS011;18965;52.242;20.886;2023-07-02T09:31:59;3.17;;;2.88;;
32523;SDS011;18965;52.242;20.886;2023-07-02T09:34:33;9.80;;;3.45;;
32523;SDS011;18965;52.242;20.886;2023-07-02T09:37:04;3.67;;;2.92;;
32523;SDS011;18965;52.242;20.886;2023-07-02T09:39:34;4.60;;;2.85;;
32523;SDS011;18965;52.242;20.886;2023-07-02T09:42:01;4.82;;;2.92;;
32523;SDS011;18965;52.242;20.886;2023-07-02T09:44:30;5.20;;;2.85;;
32523;SDS011;18965;52.242;20.886;2023-07-02T09:47:00;2.88;;;2.50;;
32523;SDS011;18965;52.242;20.886;2023-07-02T09:49:40;4.82;;;2.90;;
32523;SDS011;18965;52.242;20.886;2023-07-02T09:52:10;4.43;;;2.50;;
32523;SDS011;18965;52.242;20.886;2023-07-02T09:54:37;3.28;;;2.58;;
32523;SDS011;18965;52.242;20.886;2023-07-02T09:57:03;3.70;;;2.60;;
32523;SDS011;18965;52.242;20.886;2023-07-02T09:59:31;2.55;;;2.33;;
32523;SDS011;18965;52.242;20.886;2023-07-02T10:01:56;2.58;;;2.33;;
32523;SDS011;18965;52.242;20.886;2023-07-02T10:04:23;4.38;;;2.40;;
32523;SDS011;18965;52.242;20.886;2023-07-02T10:06:56;2.90;;;2.35;;
32523;SDS011;18965;52.242;20.886;2023-07-02T10:09:35;3.28;;;2.03;;
32523;SDS011;18965;52.242;20.886;2023-07-02T10:12:14;5.15;;;2.15;;
32523;SDS011;18965;52.242;20.886;2023-07-02T10:14:44;3.10;;;2.13;;
32523;SDS011;18965;52.242;20.886;2023-07-02T10:17:10;5.43;;;2.30;;
32523;SDS011;18965;52.242;20.886;2023-07-02T10:19:53;2.28;;;2.03;;
32523;SDS011;18965;52.242;20.886;2023-07-02T10:22:20;1.95;;;1.77;;
32523;SDS011;18965;52.242;20.886;2023-07-02T10:24:50;3.15;;;1.75;;
32523;SDS011;18965;52.242;20.886;2023-07-02T10:27:32;3.63;;;1.85;;
32523;SDS011;18965;52.242;20.886;2023-07-02T10:29:59;1.83;;;1.58;;
32523;SDS011;18965;52.242;20.886;2023-07-02T10:32:28;1.95;;;1.73;;
32523;SDS011;18965;52.242;20.886;2023-07-02T10:34:54;2.88;;;2.08;;
32523;SDS011;18965;52.242;20.886;2023-07-02T10:37:20;2.80;;;1.60;;
32523;SDS011;18965;52.242;20.886;2023-07-02T10:39:46;8.70;;;2.00;;
32523;SDS011;18965;52.242;20.886;2023-07-02T10:42:12;2.38;;;1.73;;
32523;SDS011;18965;52.242;20.886;2023-07-02T10:44:47;1.90;;;1.70;;
32523;SDS011;18965;52.242;20.886;2023-07-02T10:47:17;4.13;;;2.05;;
32523;SDS011;18965;52.242;20.886;2023-07-02T10:49:44;2.28;;;2.03;;
32523;SDS011;18965;52.242;20.886;2023-07-02T10:52:09;2.90;;;2.28;;
32523;SDS011;18965;52.242;20.886;2023-07-02T10:54:38;4.45;;;2.00;;
32523;SDS011;18965;52.242;20.886;2023-07-02T10:57:05;3.55;;;1.88;;
32523;SDS011;18965;52.242;20.886;2023-07-02T10:59:32;2.03;;;1.83;;
32523;SDS011;18965;52.242;20.886;2023-07-02T11:01:57;2.65;;;1.98;;
32523;SDS011;18965;52.242;20.886;2023-07-02T11:04:27;5.97;;;2.05;;
32523;SDS011;18965;52.242;20.886;2023-07-02T11:06:53;7.85;;;2.63;;
32523;SDS011;18965;52.242;20.886;2023-07-02T11:09:19;3.60;;;1.98;;
32523;SDS011;18965;52.242;20.886;2023-07-02T11:11:59;6.18;;;2.50;;
32523;SDS011;18965;52.242;20.886;2023-07-02T11:16:59;2.30;;;1.80;;
32523;SDS011;18965;52.242;20.886;2023-07-02T11:19:28;3.15;;;1.70;;
32523;SDS011;18965;52.242;20.886;2023-07-02T11:21:55;1.73;;;1.60;;
32523;SDS011;18965;52.242;20.886;2023-07-02T11:24:30;4.88;;;1.70;;
32523;SDS011;18965;52.242;20.886;2023-07-02T11:26:57;2.00;;;1.70;;
32523;SDS011;18965;52.242;20.886;2023-07-02T11:29:23;4.85;;;1.50;;
32523;SDS011;18965;52.242;20.886;2023-07-02T11:31:49;2.72;;;2.10;;
32523;SDS011;18965;52.242;20.886;2023-07-02T11:34:18;4.32;;;1.90;;
32523;SDS011;18965;52.242;20.886;2023-07-02T11:36:46;2.58;;;1.85;;
32523;SDS011;18965;52.242;20.886;2023-07-02T11:39:11;4.25;;;1.85;;
32523;SDS011;18965;52.242;20.886;2023-07-02T11:41:39;4.97;;;1.80;;
32523;SDS011;18965;52.242;20.886;2023-07-02T11:44:08;2.15;;;1.95;;
32523;SDS011;18965;52.242;20.886;2023-07-02T11:46:34;1.80;;;1.70;;
32523;SDS011;18965;52.242;20.886;2023-07-02T11:49:00;2.42;;;2.10;;
32523;SDS011;18965;52.242;20.886;2023-07-02T11:51:27;2.72;;;2.05;;
32523;SDS011;18965;52.242;20.886;2023-07-02T11:53:53;2.92;;;2.63;;
32523;SDS011;18965;52.242;20.886;2023-07-02T11:56:19;3.25;;;2.30;;
32523;SDS011;18965;52.242;20.886;2023-07-02T11:58:44;3.88;;;2.22;;
32523;SDS011;18965;52.242;20.886;2023-07-02T12:01:10;4.03;;;2.35;;
32523;SDS011;18965;52.242;20.886;2023-07-02T12:03:36;4.18;;;2.65;;
32523;SDS011;18965;52.242;20.886;2023-07-02T12:06:02;3.45;;;2.10;;
32523;SDS011;18965;52.242;20.886;2023-07-02T12:08:27;8.55;;;2.45;;
32523;SDS011;18965;52.242;20.886;2023-07-02T12:10:53;2.40;;;2.20;;
32523;SDS011;18965;52.242;20.886;2023-07-02T12:13:19;3.25;;;2.90;;
32523;SDS011;18965;52.242;20.886;2023-07-02T12:15:46;2.30;;;2.10;;
32523;SDS011;18965;52.242;20.886;2023-07-02T12:18:12;2.90;;;2.10;;
32523;SDS011;18965;52.242;20.886;2023-07-02T12:20:39;3.17;;;1.92;;
32523;SDS011;18965;52.242;20.886;2023-07-02T12:23:05;2.20;;;2.00;;
32523;SDS011;18965;52.242;20.886;2023-07-02T12:25:31;3.60;;;1.80;;
32523;SDS011;18965;52.242;20.886;2023-07-02T12:27:57;3.72;;;2.03;;
32523;SDS011;18965;52.242;20.886;2023-07-02T12:30:22;2.92;;;1.95;;
32523;SDS011;18965;52.242;20.886;2023-07-02T12:32:48;2.65;;;1.88;;
32523;SDS011;18965;52.242;20.886;2023-07-02T12:35:14;5.15;;;2.00;;
32523;SDS011;18965;52.242;20.886;2023-07-02T12:37:46;3.55;;;2.03;;
32523;SDS011;18965;52.242;20.886;2023-07-02T12:40:13;2.13;;;1.70;;
32523;SDS011;18965;52.242;20.886;2023-07-02T12:42:40;2.03;;;1.70;;
32523;SDS011;18965;52.242;20.886;2023-07-02T12:45:07;3.78;;;1.85;;
32523;SDS011;18965;52.242;20.886;2023-07-02T12:47:34;2.47;;;1.90;;
32523;SDS011;18965;52.242;20.886;2023-07-02T12:49:59;3.42;;;1.70;;
32523;SDS011;18965;52.242;20.886;2023-07-02T12:52:25;3.53;;;1.63;;
32523;SDS011;18965;52.242;20.886;2023-07-02T12:54:51;3.33;;;1.73;;
32523;SDS011;18965;52.242;20.886;2023-07-02T12:57:17;5.20;;;1.60;;
32523;SDS011;18965;52.242;20.886;2023-07-02T12:59:43;2.33;;;1.70;;
32523;SDS011;18965;52.242;20.886;2023-07-02T13:02:09;3.67;;;1.58;;
32523;SDS011;18965;52.242;20.886;2023-07-02T13:04:35;2.40;;;1.70;;
32523;SDS011;18965;52.242;20.886;2023-07-02T13:07:01;4.50;;;1.90;;
32523;SDS011;18965;52.242;20.886;2023-07-02T13:09:27;3.40;;;1.48;;
32523;SDS011;18965;52.242;20.886;2023-07-02T13:11:53;4.85;;;1.50;;
32523;SDS011;18965;52.242;20.886;2023-07-02T13:14:19;4.50;;;1.60;;
32523;SDS011;18965;52.242;20.886;2023-07-02T13:16:44;4.40;;;1.63;;
32523;SDS011;18965;52.242;20.886;2023-07-02T13:19:10;4.18;;;1.42;;
32523;SDS011;18965;52.242;20.886;2023-07-02T13:21:36;2.05;;;1.60;;
32523;SDS011;18965;52.242;20.886;2023-07-02T13:24:02;1.60;;;1.50;;
32523;SDS011;18965;52.242;20.886;2023-07-02T13:26:28;5.90;;;1.58;;
32523;SDS011;18965;52.242;20.886;2023-07-02T13:28:53;3.40;;;1.70;;
32523;SDS011;18965;52.242;20.886;2023-07-02T13:31:19;3.97;;;1.60;;
32523;SDS011;18965;52.242;20.886;2023-07-02T13:33:45;1.95;;;1.70;;
32523;SDS011;18965;52.242;20.886;2023-07-02T13:36:11;3.60;;;1.80;;
32523;SDS011;18965;52.242;20.886;2023-07-02T13:38:37;4.50;;;1.70;;
32523;SDS011;18965;52.242;20.886;2023-07-02T13:41:03;2.13;;;1.75;;
32523;SDS011;18965;52.242;20.886;2023-07-02T13:43:29;4.28;;;2.00;;
32523;SDS011;18965;52.242;20.886;2023-07-02T13:45:55;1.95;;;1.77;;
32523;SDS011;18965;52.242;20.886;2023-07-02T13:48:20;2.42;;;1.60;;
32523;SDS011;18965;52.242;20.886;2023-07-02T13:50:46;2.42;;;1.60;;
32523;SDS011;18965;52.242;20.886;2023-07-02T13:53:12;4.88;;;1.55;;
32523;SDS011;18965;52.242;20.886;2023-07-02T13:55:38;3.38;;;1.55;;
32523;SDS011;18965;52.242;20.886;2023-07-02T13:58:03;1.77;;;1.52;;
32523;SDS011;18965;52.242;20.886;2023-07-02T14:00:29;4.03;;;1.50;;
32523;SDS011;18965;52.242;20.886;2023-07-02T14:02:55;2.75;;;1.52;;
32523;SDS011;18965;52.242;20.886;2023-07-02T14:05:21;4.43;;;1.48;;
32523;SDS011;18965;52.242;20.886;2023-07-02T14:07:47;2.75;;;1.60;;
32523;SDS011;18965;52.242;20.886;2023-07-02T14:10:14;5.63;;;1.50;;
32523;SDS011;18965;52.242;20.886;2023-07-02T14:12:40;1.73;;;1.60;;
32523;SDS011;18965;52.242;20.886;2023-07-02T14:15:07;2.67;;;1.50;;
32523;SDS011;18965;52.242;20.886;2023-07-02T14:17:33;4.03;;;1.80;;
32523;SDS011;18965;52.242;20.886;2023-07-02T14:19:59;4.18;;;1.40;;
32523;SDS011;18965;52.242;20.886;2023-07-02T14:22:24;1.50;;;1.40;;
32523;SDS011;18965;52.242;20.886;2023-07-02T14:24:50;3.22;;;1.60;;